sensor_id;sensor_type;location;lat;lon;timestamp;P1;durP1;ratioP1;P2;durP2;ratioP2
11042;SDS011;5574;48.786;10.120;2024-01-15T00:00:21;13.30;;;8.63;;
11042;SDS011;5574;48.786;10.120;2024-01-15T00:02:48;15.53;;;8.97;;
11042;SDS011;5574;48.786;10.120;2024-01-15T00:05:14;14.40;;;8.20;;
11042;SDS011;5574;48.786;10.120;2024-01-15T00:07:41;15.40;;;9.17;;
11042;SDS011;5574;48.786;10.120;2024-01-15T00:10:08;13.83;;;8.53;;
11042;SDS011;5574;48.786;10.120;2024-01-15T00:12:34;12.77;;;8.37;;
11042;SDS011;5574;48.786;10.120;2024-01-15T00:15:01;12.07;;;7.23;;
11042;SDS011;5574;48.786;10.120;2024-01-15T00:17:29;12.77;;;7.97;;
11042;SDS011;5574;48.786;10.120;2024-01-15T00:19:56;12.87;;;7.87;;
11042;SDS011;5574;48.786;10.120;2024-01-15T00:22:23;13.40;;;8.33;;
11042;SDS011;5574;48.786;10.120;2024-01-15T00:24:51;11.83;;;7.77;;
11042;SDS011;5574;48.786;10.120;2024-01-15T00:27:18;11.70;;;7.53;;
11042;SDS011;5574;48.786;10.120;2024-01-15T00:29:44;12.93;;;7.80;;
11042;SDS011;5574;48.786;10.120;2024-01-15T00:32:11;13.33;;;8.33;;
11042;SDS011;5574;48.786;10.120;2024-01-15T00:34:39;12.30;;;7.87;;
11042;SDS011;5574;48.786;10.120;2024-01-15T00:37:06;12.10;;;7.63;;
11042;SDS011;5574;48.786;10.120;2024-01-15T00:39:32;10.33;;;7.17;;
11042;SDS011;5574;48.786;10.120;2024-01-15T00:41:59;13.50;;;8.13;;
11042;SDS011;5574;48.786;10.120;2024-01-15T00:44:26;13.87;;;7.90;;
11042;SDS011;5574;48.786;10.120;2024-01-15T00:46:52;11.10;;;6.80;;
11042;SDS011;5574;48.786;10.120;2024-01-15T00:49:19;11.80;;;7.60;;
11042;SDS011;5574;48.786;10.120;2024-01-15T00:51:47;13.60;;;8.47;;
11042;SDS011;5574;48.786;10.120;2024-01-15T00:54:14;12.60;;;8.07;;
11042;SDS011;5574;48.786;10.120;2024-01-15T00:56:40;12.83;;;7.70;;
11042;SDS011;5574;48.786;10.120;2024-01-15T00:59:07;14.17;;;7.63;;
11042;SDS011;5574;48.786;10.120;2024-01-15T01:01:35;11.03;;;7.33;;
11042;SDS011;5574;48.786;10.120;2024-01-15T01:04:03;13.03;;;7.13;;
11042;SDS011;5574;48.786;10.120;2024-01-15T01:06:29;11.57;;;6.97;;
11042;SDS011;5574;48.786;10.120;2024-01-15T01:08:57;10.83;;;7.13;;
11042;SDS011;5574;48.786;10.120;2024-01-15T01:11:24;12.57;;;7.63;;
11042;SDS011;5574;48.786;10.120;2024-01-15T01:13:51;12.10;;;7.03;;
11042;SDS011;5574;48.786;10.120;2024-01-15T01:16:17;11.67;;;6.97;;
11042;SDS011;5574;48.786;10.120;2024-01-15T01:18:44;12.23;;;7.47;;
11042;SDS011;5574;48.786;10.120;2024-01-15T01:21:10;10.93;;;7.67;;
11042;SDS011;5574;48.786;10.120;2024-01-15T01:23:37;12.47;;;8.43;;
11042;SDS011;5574;48.786;10.120;2024-01-15T01:26:05;12.17;;;7.70;;
11042;SDS011;5574;48.786;10.120;2024-01-15T01:28:32;12.73;;;7.80;;
11042;SDS011;5574;48.786;10.120;2024-01-15T01:30:59;11.20;;;7.27;;
11042;SDS011;5574;48.786;10.120;2024-01-15T01:33:26;11.03;;;7.50;;
11042;SDS011;5574;48.786;10.120;2024-01-15T01:35:52;13.93;;;8.03;;
11042;SDS011;5574;48.786;10.120;2024-01-15T01:38:19;12.77;;;7.90;;
11042;SDS011;5574;48.786;10.120;2024-01-15T01:40:46;11.53;;;7.10;;
11042;SDS011;5574;48.786;10.120;2024-01-15T01:43:14;12.23;;;7.30;;
11042;SDS011;5574;48.786;10.120;2024-01-15T01:45:40;11.73;;;8.00;;
11042;SDS011;5574;48.786;10.120;2024-01-15T01:48:07;11.97;;;7.47;;
11042;SDS011;5574;48.786;10.120;2024-01-15T01:50:34;11.40;;;7.17;;
11042;SDS011;5574;48.786;10.120;2024-01-15T01:53:01;9.13;;;6.43;;
11042;SDS011;5574;48.786;10.120;2024-01-15T01:55:29;9.17;;;6.63;;
11042;SDS011;5574;48.786;10.120;2024-01-15T01:57:58;10.20;;;6.43;;
11042;SDS011;5574;48.786;10.120;2024-01-15T02:00:26;9.83;;;6.47;;
11042;SDS011;5574;48.786;10.120;2024-01-15T02:02:53;10.10;;;6.23;;
11042;SDS011;5574;48.786;10.120;2024-01-15T02:05:20;9.67;;;6.43;;
11042;SDS011;5574;48.786;10.120;2024-01-15T02:07:47;9.30;;;5.63;;
11042;SDS011;5574;48.786;10.120;2024-01-15T02:10:14;8.53;;;5.83;;
11042;SDS011;5574;48.786;10.120;2024-01-15T02:12:42;9.33;;;5.90;;
11042;SDS011;5574;48.786;10.120;2024-01-15T02:15:09;9.70;;;5.97;;
11042;SDS011;5574;48.786;10.120;2024-01-15T02:17:41;9.23;;;5.63;;
11042;SDS011;5574;48.786;10.120;2024-01-15T02:20:22;7.70;;;5.50;;
11042;SDS011;5574;48.786;10.120;2024-01-15T02:22:49;9.17;;;6.20;;
11042;SDS011;5574;48.786;10.120;2024-01-15T02:25:17;8.23;;;5.57;;
11042;SDS011;5574;48.786;10.120;2024-01-15T02:27:44;8.03;;;5.60;;
11042;SDS011;5574;48.786;10.120;2024-01-15T02:30:12;9.07;;;5.93;;
11042;SDS011;5574;48.786;10.120;2024-01-15T02:32:39;8.03;;;5.37;;
11042;SDS011;5574;48.786;10.120;2024-01-15T02:35:06;9.10;;;5.43;;
11042;SDS011;5574;48.786;10.120;2024-01-15T02:37:33;7.87;;;5.27;;
11042;SDS011;5574;48.786;10.120;2024-01-15T02:39:59;8.80;;;5.60;;
11042;SDS011;5574;48.786;10.120;2024-01-15T02:42:27;7.60;;;4.87;;
11042;SDS011;5574;48.786;10.120;2024-01-15T02:44:54;10.60;;;6.10;;
11042;SDS011;5574;48.786;10.120;2024-01-15T02:47:21;8.50;;;5.57;;
11042;SDS011;5574;48.786;10.120;2024-01-15T02:49:47;5.73;;;4.43;;
11042;SDS011;5574;48.786;10.120;2024-01-15T02:52:14;7.13;;;5.10;;
11042;SDS011;5574;48.786;10.120;2024-01-15T02:54:41;9.03;;;5.10;;
11042;SDS011;5574;48.786;10.120;2024-01-15T02:57:07;8.77;;;5.43;;
11042;SDS011;5574;48.786;10.120;2024-01-15T02:59:35;10.20;;;5.13;;
11042;SDS011;5574;48.786;10.120;2024-01-15T03:02:02;6.57;;;4.80;;
11042;SDS011;5574;48.786;10.120;2024-01-15T03:04:29;5.30;;;4.03;;
11042;SDS011;5574;48.786;10.120;2024-01-15T03:06:56;6.23;;;4.60;;
11042;SDS011;5574;48.786;10.120;2024-01-15T03:16:08;8.30;;;5.27;;
11042;SDS011;5574;48.786;10.120;2024-01-15T03:18:36;7.17;;;4.87;;
11042;SDS011;5574;48.786;10.120;2024-01-15T03:21:02;9.70;;;4.90;;
11042;SDS011;5574;48.786;10.120;2024-01-15T03:23:30;6.80;;;5.27;;
11042;SDS011;5574;48.786;10.120;2024-01-15T03:25:57;6.67;;;4.97;;
11042;SDS011;5574;48.786;10.120;2024-01-15T03:28:24;6.90;;;4.53;;
11042;SDS011;5574;48.786;10.120;2024-01-15T03:30:50;7.50;;;4.73;;
11042;SDS011;5574;48.786;10.120;2024-01-15T03:33:18;7.60;;;4.60;;
11042;SDS011;5574;48.786;10.120;2024-01-15T03:35:45;7.80;;;4.77;;
11042;SDS011;5574;48.786;10.120;2024-01-15T03:38:12;6.87;;;4.53;;
11042;SDS011;5574;48.786;10.120;2024-01-15T03:40:38;6.77;;;4.63;;
11042;SDS011;5574;48.786;10.120;2024-01-15T03:43:05;6.00;;;4.50;;
11042;SDS011;5574;48.786;10.120;2024-01-15T03:45:32;7.03;;;4.93;;
11042;SDS011;5574;48.786;10.120;2024-01-15T03:47:58;7.73;;;4.90;;
11042;SDS011;5574;48.786;10.120;2024-01-15T03:50:26;7.40;;;4.90;;
11042;SDS011;5574;48.786;10.120;2024-01-15T03:52:53;6.00;;;4.70;;
11042;SDS011;5574;48.786;10.120;2024-01-15T03:55:20;7.53;;;4.77;;
11042;SDS011;5574;48.786;10.120;2024-01-15T03:57:46;6.70;;;4.33;;
11042;SDS011;5574;48.786;10.120;2024-01-15T04:00:14;7.17;;;4.47;;
11042;SDS011;5574;48.786;10.120;2024-01-15T04:02:42;7.50;;;4.93;;
11042;SDS011;5574;48.786;10.120;2024-01-15T04:05:09;8.83;;;5.13;;
11042;SDS011;5574;48.786;10.120;2024-01-15T04:07:37;10.20;;;5.50;;
11042;SDS011;5574;48.786;10.120;2024-01-15T04:10:04;8.10;;;5.43;;
11042;SDS011;5574;48.786;10.120;2024-01-15T04:12:31;6.60;;;5.10;;
11042;SDS011;5574;48.786;10.120;2024-01-15T04:14:58;7.93;;;5.20;;
11042;SDS011;5574;48.786;10.120;2024-01-15T04:17:24;6.90;;;4.60;;
11042;SDS011;5574;48.786;10.120;2024-01-15T04:19:51;7.27;;;5.03;;
11042;SDS011;5574;48.786;10.120;2024-01-15T04:22:18;9.23;;;4.90;;
11042;SDS011;5574;48.786;10.120;2024-01-15T04:24:46;7.43;;;4.67;;
11042;SDS011;5574;48.786;10.120;2024-01-15T04:27:13;7.50;;;5.37;;
11042;SDS011;5574;48.786;10.120;2024-01-15T04:29:40;7.50;;;4.73;;
11042;SDS011;5574;48.786;10.120;2024-01-15T04:32:09;7.37;;;5.10;;
11042;SDS011;5574;48.786;10.120;2024-01-15T04:34:36;6.67;;;4.90;;
11042;SDS011;5574;48.786;10.120;2024-01-15T04:37:03;6.93;;;4.97;;
11042;SDS011;5574;48.786;10.120;2024-01-15T04:39:29;7.13;;;5.13;;
11042;SDS011;5574;48.786;10.120;2024-01-15T04:41:57;8.23;;;5.33;;
11042;SDS011;5574;48.786;10.120;2024-01-15T04:44:24;6.27;;;4.80;;
11042;SDS011;5574;48.786;10.120;2024-01-15T04:46:51;6.93;;;4.57;;
11042;SDS011;5574;48.786;10.120;2024-01-15T04:49:17;7.33;;;5.07;;
11042;SDS011;5574;48.786;10.120;2024-01-15T04:51:44;7.57;;;4.77;;
11042;SDS011;5574;48.786;10.120;2024-01-15T04:54:11;8.60;;;5.00;;
11042;SDS011;5574;48.786;10.120;2024-01-15T04:56:38;9.17;;;5.07;;
11042;SDS011;5574;48.786;10.120;2024-01-15T04:59:06;7.10;;;5.10;;
11042;SDS011;5574;48.786;10.120;2024-01-15T05:01:32;8.20;;;5.30;;
11042;SDS011;5574;48.786;10.120;2024-01-15T05:03:59;7.83;;;4.93;;
11042;SDS011;5574;48.786;10.120;2024-01-15T05:06:26;9.37;;;5.30;;
11042;SDS011;5574;48.786;10.120;2024-01-15T05:08:52;8.40;;;5.20;;
11042;SDS011;5574;48.786;10.120;2024-01-15T05:11:19;6.47;;;4.90;;
11042;SDS011;5574;48.786;10.120;2024-01-15T05:13:46;6.50;;;4.40;;
11042;SDS011;5574;48.786;10.120;2024-01-15T05:16:14;7.77;;;5.17;;
11042;SDS011;5574;48.786;10.120;2024-01-15T05:18:41;7.50;;;4.83;;
11042;SDS011;5574;48.786;10.120;2024-01-15T05:21:08;7.70;;;5.50;;
11042;SDS011;5574;48.786;10.120;2024-01-15T05:23:35;9.57;;;5.40;;
11042;SDS011;5574;48.786;10.120;2024-01-15T05:26:01;7.00;;;4.50;;
11042;SDS011;5574;48.786;10.120;2024-01-15T05:28:28;7.23;;;4.83;;
11042;SDS011;5574;48.786;10.120;2024-01-15T05:30:55;7.43;;;4.90;;
11042;SDS011;5574;48.786;10.120;2024-01-15T05:33:23;8.57;;;5.20;;
11042;SDS011;5574;48.786;10.120;2024-01-15T05:35:50;6.43;;;4.60;;
11042;SDS011;5574;48.786;10.120;2024-01-15T05:38:17;6.97;;;4.90;;
11042;SDS011;5574;48.786;10.120;2024-01-15T05:40:43;6.43;;;5.17;;
11042;SDS011;5574;48.786;10.120;2024-01-15T05:43:10;8.10;;;5.43;;
11042;SDS011;5574;48.786;10.120;2024-01-15T05:45:37;7.17;;;5.27;;
11042;SDS011;5574;48.786;10.120;2024-01-15T05:48:04;7.77;;;5.37;;
11042;SDS011;5574;48.786;10.120;2024-01-15T05:50:32;8.73;;;5.13;;
11042;SDS011;5574;48.786;10.120;2024-01-15T05:53:00;7.40;;;5.00;;
11042;SDS011;5574;48.786;10.120;2024-01-15T05:55:27;7.80;;;5.53;;
11042;SDS011;5574;48.786;10.120;2024-01-15T05:57:54;7.80;;;4.83;;
11042;SDS011;5574;48.786;10.120;2024-01-15T06:00:21;8.70;;;5.47;;
11042;SDS011;5574;48.786;10.120;2024-01-15T06:02:47;8.40;;;5.77;;
11042;SDS011;5574;48.786;10.120;2024-01-15T06:05:14;8.70;;;5.40;;
11042;SDS011;5574;48.786;10.120;2024-01-15T06:07:42;7.67;;;5.13;;
11042;SDS011;5574;48.786;10.120;2024-01-15T06:10:09;10.57;;;5.87;;
11042;SDS011;5574;48.786;10.120;2024-01-15T06:12:35;8.53;;;5.40;;
11042;SDS011;5574;48.786;10.120;2024-01-15T06:15:02;13.73;;;7.53;;
11042;SDS011;5574;48.786;10.120;2024-01-15T06:17:29;10.17;;;6.73;;
11042;SDS011;5574;48.786;10.120;2024-01-15T06:19:56;7.30;;;4.77;;
11042;SDS011;5574;48.786;10.120;2024-01-15T06:22:23;7.13;;;5.23;;
11042;SDS011;5574;48.786;10.120;2024-01-15T06:24:51;6.57;;;4.77;;
11042;SDS011;5574;48.786;10.120;2024-01-15T06:27:17;8.00;;;5.03;;
11042;SDS011;5574;48.786;10.120;2024-01-15T06:29:44;7.03;;;4.23;;
11042;SDS011;5574;48.786;10.120;2024-01-15T06:32:12;6.73;;;5.17;;
11042;SDS011;5574;48.786;10.120;2024-01-15T06:34:38;7.17;;;4.50;;
11042;SDS011;5574;48.786;10.120;2024-01-15T06:37:05;7.80;;;5.03;;
11042;SDS011;5574;48.786;10.120;2024-01-15T06:39:32;8.17;;;4.73;;
11042;SDS011;5574;48.786;10.120;2024-01-15T06:42:00;7.10;;;5.00;;
11042;SDS011;5574;48.786;10.120;2024-01-15T06:44:27;7.30;;;4.90;;
11042;SDS011;5574;48.786;10.120;2024-01-15T06:46:53;6.13;;;4.33;;
11042;SDS011;5574;48.786;10.120;2024-01-15T06:49:22;7.80;;;4.97;;
11042;SDS011;5574;48.786;10.120;2024-01-15T06:51:49;4.70;;;4.10;;
11042;SDS011;5574;48.786;10.120;2024-01-15T06:54:15;7.70;;;5.17;;
11042;SDS011;5574;48.786;10.120;2024-01-15T06:56:42;5.37;;;4.20;;
11042;SDS011;5574;48.786;10.120;2024-01-15T06:59:10;6.07;;;4.37;;
11042;SDS011;5574;48.786;10.120;2024-01-15T07:01:37;6.87;;;4.07;;
11042;SDS011;5574;48.786;10.120;2024-01-15T07:04:03;6.40;;;4.43;;
11042;SDS011;5574;48.786;10.120;2024-01-15T07:06:30;5.30;;;4.50;;
11042;SDS011;5574;48.786;10.120;2024-01-15T07:08:57;5.97;;;4.23;;
11042;SDS011;5574;48.786;10.120;2024-01-15T07:11:23;6.20;;;4.63;;
11042;SDS011;5574;48.786;10.120;2024-01-15T07:13:50;6.97;;;4.60;;
11042;SDS011;5574;48.786;10.120;2024-01-15T07:16:18;6.07;;;4.93;;
11042;SDS011;5574;48.786;10.120;2024-01-15T07:18:45;5.57;;;4.43;;
11042;SDS011;5574;48.786;10.120;2024-01-15T07:21:12;6.63;;;4.80;;
11042;SDS011;5574;48.786;10.120;2024-01-15T07:23:38;7.53;;;4.93;;
11042;SDS011;5574;48.786;10.120;2024-01-15T07:26:05;6.07;;;5.03;;
11042;SDS011;5574;48.786;10.120;2024-01-15T07:28:32;7.10;;;4.93;;
11042;SDS011;5574;48.786;10.120;2024-01-15T07:30:59;6.93;;;4.37;;
11042;SDS011;5574;48.786;10.120;2024-01-15T07:33:29;6.07;;;4.53;;
11042;SDS011;5574;48.786;10.120;2024-01-15T07:35:56;6.53;;;4.70;;
11042;SDS011;5574;48.786;10.120;2024-01-15T07:38:23;5.57;;;3.90;;
11042;SDS011;5574;48.786;10.120;2024-01-15T07:40:49;6.30;;;4.90;;
11042;SDS011;5574;48.786;10.120;2024-01-15T07:43:16;7.10;;;4.50;;
11042;SDS011;5574;48.786;10.120;2024-01-15T07:45:43;4.97;;;3.70;;
11042;SDS011;5574;48.786;10.120;2024-01-15T07:48:10;5.33;;;4.30;;
11042;SDS011;5574;48.786;10.120;2024-01-15T07:50:38;6.17;;;4.30;;
11042;SDS011;5574;48.786;10.120;2024-01-15T07:53:05;6.20;;;4.30;;
11042;SDS011;5574;48.786;10.120;2024-01-15T07:55:31;6.27;;;4.27;;
11042;SDS011;5574;48.786;10.120;2024-01-15T07:57:58;6.30;;;4.73;;
11042;SDS011;5574;48.786;10.120;2024-01-15T08:00:25;6.33;;;4.40;;
11042;SDS011;5574;48.786;10.120;2024-01-15T08:02:51;5.17;;;4.47;;
11042;SDS011;5574;48.786;10.120;2024-01-15T08:05:19;6.33;;;4.37;;
11042;SDS011;5574;48.786;10.120;2024-01-15T08:07:48;5.97;;;4.50;;
11042;SDS011;5574;48.786;10.120;2024-01-15T08:10:14;6.33;;;4.43;;
11042;SDS011;5574;48.786;10.120;2024-01-15T08:12:41;6.17;;;4.60;;
11042;SDS011;5574;48.786;10.120;2024-01-15T08:15:08;5.57;;;4.30;;
11042;SDS011;5574;48.786;10.120;2024-01-15T08:17:35;5.23;;;3.97;;
11042;SDS011;5574;48.786;10.120;2024-01-15T08:20:01;5.93;;;4.67;;
11042;SDS011;5574;48.786;10.120;2024-01-15T08:22:30;5.40;;;4.10;;
11042;SDS011;5574;48.786;10.120;2024-01-15T08:24:58;4.13;;;3.73;;
11042;SDS011;5574;48.786;10.120;2024-01-15T08:27:24;6.37;;;4.50;;
11042;SDS011;5574;48.786;10.120;2024-01-15T08:29:51;5.20;;;3.90;;
11042;SDS011;5574;48.786;10.120;2024-01-15T08:32:18;4.67;;;3.77;;
11042;SDS011;5574;48.786;10.120;2024-01-15T08:34:44;4.73;;;4.07;;
11042;SDS011;5574;48.786;10.120;2024-01-15T08:37:12;6.00;;;4.10;;
11042;SDS011;5574;48.786;10.120;2024-01-15T08:39:39;4.73;;;4.00;;
11042;SDS011;5574;48.786;10.120;2024-01-15T08:42:07;6.10;;;4.30;;
11042;SDS011;5574;48.786;10.120;2024-01-15T08:44:34;5.30;;;3.67;;
11042;SDS011;5574;48.786;10.120;2024-01-15T08:47:01;4.40;;;3.73;;
11042;SDS011;5574;48.786;10.120;2024-01-15T08:49:28;4.80;;;3.57;;
11042;SDS011;5574;48.786;10.120;2024-01-15T08:51:54;4.97;;;3.93;;
11042;SDS011;5574;48.786;10.120;2024-01-15T08:54:21;3.60;;;3.27;;
11042;SDS011;5574;48.786;10.120;2024-01-15T08:56:48;4.53;;;3.30;;
11042;SDS011;5574;48.786;10.120;2024-01-15T08:59:16;5.33;;;3.90;;
11042;SDS011;5574;48.786;10.120;2024-01-15T09:01:49;5.70;;;4.03;;
11042;SDS011;5574;48.786;10.120;2024-01-15T09:04:16;5.10;;;4.37;;
11042;SDS011;5574;48.786;10.120;2024-01-15T09:06:44;5.40;;;3.97;;
11042;SDS011;5574;48.786;10.120;2024-01-15T09:09:11;4.87;;;3.60;;
11042;SDS011;5574;48.786;10.120;2024-01-15T09:11:38;3.93;;;3.23;;
11042;SDS011;5574;48.786;10.120;2024-01-15T09:14:05;4.97;;;3.47;;
11042;SDS011;5574;48.786;10.120;2024-01-15T09:16:33;4.13;;;3.40;;
11042;SDS011;5574;48.786;10.120;2024-01-15T09:18:59;4.33;;;3.20;;
11042;SDS011;5574;48.786;10.120;2024-01-15T09:21:26;5.37;;;3.83;;
11042;SDS011;5574;48.786;10.120;2024-01-15T09:23:53;4.33;;;3.53;;
11042;SDS011;5574;48.786;10.120;2024-01-15T09:26:19;4.20;;;3.40;;
11042;SDS011;5574;48.786;10.120;2024-01-15T09:28:46;3.67;;;3.10;;
11042;SDS011;5574;48.786;10.120;2024-01-15T09:31:13;4.93;;;3.60;;
11042;SDS011;5574;48.786;10.120;2024-01-15T09:33:41;4.67;;;3.80;;
11042;SDS011;5574;48.786;10.120;2024-01-15T09:36:08;4.63;;;3.43;;
11042;SDS011;5574;48.786;10.120;2024-01-15T09:38:34;5.80;;;3.50;;
11042;SDS011;5574;48.786;10.120;2024-01-15T09:41:01;5.20;;;3.50;;
11042;SDS011;5574;48.786;10.120;2024-01-15T09:43:28;5.33;;;3.67;;
11042;SDS011;5574;48.786;10.120;2024-01-15T09:45:55;5.70;;;3.50;;
11042;SDS011;5574;48.786;10.120;2024-01-15T09:48:23;4.27;;;3.30;;
11042;SDS011;5574;48.786;10.120;2024-01-15T09:50:51;7.33;;;3.53;;
11042;SDS011;5574;48.786;10.120;2024-01-15T09:53:18;4.77;;;3.37;;
11042;SDS011;5574;48.786;10.120;2024-01-15T09:55:46;4.07;;;3.00;;
11042;SDS011;5574;48.786;10.120;2024-01-15T09:58:15;5.60;;;3.20;;
11042;SDS011;5574;48.786;10.120;2024-01-15T10:00:42;4.07;;;3.23;;
11042;SDS011;5574;48.786;10.120;2024-01-15T10:03:10;4.87;;;3.20;;
11042;SDS011;5574;48.786;10.120;2024-01-15T10:05:37;4.10;;;3.50;;
11042;SDS011;5574;48.786;10.120;2024-01-15T10:08:06;3.93;;;3.23;;
11042;SDS011;5574;48.786;10.120;2024-01-15T10:10:33;4.30;;;3.20;;
11042;SDS011;5574;48.786;10.120;2024-01-15T10:13:03;3.73;;;2.90;;
11042;SDS011;5574;48.786;10.120;2024-01-15T10:15:33;4.23;;;3.37;;
11042;SDS011;5574;48.786;10.120;2024-01-15T10:18:01;4.67;;;3.10;;
11042;SDS011;5574;48.786;10.120;2024-01-15T10:20:28;4.83;;;3.20;;
11042;SDS011;5574;48.786;10.120;2024-01-15T10:22:57;3.93;;;3.13;;
11042;SDS011;5574;48.786;10.120;2024-01-15T10:25:26;3.47;;;3.00;;
11042;SDS011;5574;48.786;10.120;2024-01-15T10:27:59;5.03;;;3.10;;
11042;SDS011;5574;48.786;10.120;2024-01-15T10:30:27;4.13;;;3.20;;
11042;SDS011;5574;48.786;10.120;2024-01-15T10:32:57;4.20;;;3.33;;
11042;SDS011;5574;48.786;10.120;2024-01-15T10:35:26;4.83;;;3.17;;
11042;SDS011;5574;48.786;10.120;2024-01-15T10:37:53;3.80;;;2.80;;
11042;SDS011;5574;48.786;10.120;2024-01-15T10:40:20;3.97;;;3.20;;
11042;SDS011;5574;48.786;10.120;2024-01-15T10:42:48;4.23;;;3.00;;
11042;SDS011;5574;48.786;10.120;2024-01-15T10:45:14;4.40;;;3.27;;
11042;SDS011;5574;48.786;10.120;2024-01-15T10:47:41;3.60;;;2.90;;
11042;SDS011;5574;48.786;10.120;2024-01-15T10:50:09;3.83;;;3.00;;
11042;SDS011;5574;48.786;10.120;2024-01-15T10:52:36;4.50;;;2.90;;
11042;SDS011;5574;48.786;10.120;2024-01-15T10:55:05;4.33;;;2.90;;
11042;SDS011;5574;48.786;10.120;2024-01-15T10:57:33;2.63;;;2.30;;
11042;SDS011;5574;48.786;10.120;2024-01-15T11:00:02;3.87;;;2.70;;
11042;SDS011;5574;48.786;10.120;2024-01-15T11:02:30;4.20;;;2.90;;
11042;SDS011;5574;48.786;10.120;2024-01-15T11:04:59;3.53;;;2.80;;
11042;SDS011;5574;48.786;10.120;2024-01-15T11:07:26;4.03;;;2.80;;
11042;SDS011;5574;48.786;10.120;2024-01-15T11:09:53;3.90;;;2.63;;
11042;SDS011;5574;48.786;10.120;2024-01-15T11:12:19;4.67;;;3.03;;
11042;SDS011;5574;48.786;10.120;2024-01-15T11:14:46;4.47;;;3.00;;
11042;SDS011;5574;48.786;10.120;2024-01-15T11:17:15;5.77;;;2.60;;
11042;SDS011;5574;48.786;10.120;2024-01-15T11:19:43;3.60;;;2.97;;
11042;SDS011;5574;48.786;10.120;2024-01-15T11:25:13;2.90;;;2.70;;
11042;SDS011;5574;48.786;10.120;2024-01-15T11:27:41;5.00;;;2.83;;
11042;SDS011;5574;48.786;10.120;2024-01-15T11:30:09;4.03;;;2.73;;
11042;SDS011;5574;48.786;10.120;2024-01-15T11:32:39;3.53;;;2.90;;
11042;SDS011;5574;48.786;10.120;2024-01-15T11:35:07;3.30;;;2.73;;
11042;SDS011;5574;48.786;10.120;2024-01-15T11:40:35;4.57;;;2.90;;
11042;SDS011;5574;48.786;10.120;2024-01-15T11:43:03;4.00;;;2.90;;
11042;SDS011;5574;48.786;10.120;2024-01-15T11:45:30;2.83;;;2.60;;
11042;SDS011;5574;48.786;10.120;2024-01-15T11:48:10;3.97;;;3.03;;
11042;SDS011;5574;48.786;10.120;2024-01-15T11:50:39;2.70;;;2.50;;
11042;SDS011;5574;48.786;10.120;2024-01-15T11:53:10;2.67;;;2.47;;
11042;SDS011;5574;48.786;10.120;2024-01-15T11:55:43;3.10;;;2.80;;
11042;SDS011;5574;48.786;10.120;2024-01-15T11:58:13;3.43;;;2.90;;
11042;SDS011;5574;48.786;10.120;2024-01-15T12:00:42;3.47;;;2.77;;
11042;SDS011;5574;48.786;10.120;2024-01-15T12:03:11;4.57;;;2.70;;
11042;SDS011;5574;48.786;10.120;2024-01-15T12:05:37;4.10;;;3.00;;
11042;SDS011;5574;48.786;10.120;2024-01-15T12:08:05;4.20;;;2.70;;
11042;SDS011;5574;48.786;10.120;2024-01-15T12:10:36;3.07;;;2.77;;
11042;SDS011;5574;48.786;10.120;2024-01-15T12:13:05;3.07;;;2.77;;
11042;SDS011;5574;48.786;10.120;2024-01-15T12:15:36;2.87;;;2.60;;
11042;SDS011;5574;48.786;10.120;2024-01-15T12:18:06;4.57;;;2.90;;
11042;SDS011;5574;48.786;10.120;2024-01-15T12:20:35;3.70;;;2.90;;
11042;SDS011;5574;48.786;10.120;2024-01-15T12:23:03;3.37;;;2.93;;
11042;SDS011;5574;48.786;10.120;2024-01-15T12:25:30;4.63;;;3.00;;
11042;SDS011;5574;48.786;10.120;2024-01-15T12:27:58;2.83;;;2.60;;
11042;SDS011;5574;48.786;10.120;2024-01-15T12:30:25;15.80;;;10.87;;
11042;SDS011;5574;48.786;10.120;2024-01-15T12:32:52;3.23;;;2.93;;
11042;SDS011;5574;48.786;10.120;2024-01-15T12:35:19;3.63;;;3.23;;
11042;SDS011;5574;48.786;10.120;2024-01-15T12:37:47;3.30;;;3.00;;
11042;SDS011;5574;48.786;10.120;2024-01-15T12:40:14;3.23;;;2.63;;
11042;SDS011;5574;48.786;10.120;2024-01-15T12:42:45;3.63;;;2.70;;
11042;SDS011;5574;48.786;10.120;2024-01-15T12:45:12;3.23;;;2.77;;
11042;SDS011;5574;48.786;10.120;2024-01-15T12:47:39;3.43;;;2.60;;
11042;SDS011;5574;48.786;10.120;2024-01-15T12:50:07;2.53;;;2.20;;
11042;SDS011;5574;48.786;10.120;2024-01-15T12:52:34;2.97;;;2.60;;
11042;SDS011;5574;48.786;10.120;2024-01-15T12:55:04;3.63;;;2.60;;
11042;SDS011;5574;48.786;10.120;2024-01-15T12:57:33;3.43;;;2.50;;
11042;SDS011;5574;48.786;10.120;2024-01-15T13:00:00;3.87;;;2.70;;
11042;SDS011;5574;48.786;10.120;2024-01-15T13:02:31;3.90;;;2.77;;
11042;SDS011;5574;48.786;10.120;2024-01-15T13:04:58;3.27;;;2.87;;
11042;SDS011;5574;48.786;10.120;2024-01-15T13:07:25;5.30;;;3.97;;
11042;SDS011;5574;48.786;10.120;2024-01-15T13:09:52;4.40;;;3.03;;
11042;SDS011;5574;48.786;10.120;2024-01-15T13:12:20;3.07;;;2.77;;
11042;SDS011;5574;48.786;10.120;2024-01-15T13:14:47;2.93;;;2.73;;
11042;SDS011;5574;48.786;10.120;2024-01-15T13:17:14;3.23;;;2.90;;
11042;SDS011;5574;48.786;10.120;2024-01-15T13:19:40;2.67;;;2.40;;
11042;SDS011;5574;48.786;10.120;2024-01-15T13:22:07;4.07;;;2.63;;
11042;SDS011;5574;48.786;10.120;2024-01-15T13:24:34;3.17;;;2.80;;
11042;SDS011;5574;48.786;10.120;2024-01-15T13:27:01;2.70;;;2.50;;
11042;SDS011;5574;48.786;10.120;2024-01-15T13:29:30;3.03;;;2.60;;
11042;SDS011;5574;48.786;10.120;2024-01-15T13:31:57;2.70;;;2.47;;
11042;SDS011;5574;48.786;10.120;2024-01-15T13:34:24;2.70;;;2.47;;
11042;SDS011;5574;48.786;10.120;2024-01-15T13:36:51;3.93;;;3.47;;
11042;SDS011;5574;48.786;10.120;2024-01-15T13:39:18;3.23;;;2.83;;
11042;SDS011;5574;48.786;10.120;2024-01-15T13:41:45;2.60;;;2.40;;
11042;SDS011;5574;48.786;10.120;2024-01-15T13:44:13;2.57;;;2.37;;
11042;SDS011;5574;48.786;10.120;2024-01-15T13:46:41;2.53;;;2.33;;
11042;SDS011;5574;48.786;10.120;2024-01-15T13:49:07;3.07;;;2.20;;
11042;SDS011;5574;48.786;10.120;2024-01-15T13:51:35;2.93;;;2.17;;
11042;SDS011;5574;48.786;10.120;2024-01-15T13:54:02;2.53;;;2.30;;
11042;SDS011;5574;48.786;10.120;2024-01-15T13:56:30;2.50;;;2.30;;
11042;SDS011;5574;48.786;10.120;2024-01-15T13:58:57;2.60;;;2.40;;
11042;SDS011;5574;48.786;10.120;2024-01-15T14:01:25;4.37;;;3.23;;
11042;SDS011;5574;48.786;10.120;2024-01-15T14:03:53;2.80;;;2.40;;
11042;SDS011;5574;48.786;10.120;2024-01-15T14:06:20;2.23;;;2.03;;
11042;SDS011;5574;48.786;10.120;2024-01-15T14:08:46;2.50;;;2.27;;
11042;SDS011;5574;48.786;10.120;2024-01-15T14:11:13;2.33;;;2.13;;
11042;SDS011;5574;48.786;10.120;2024-01-15T14:13:40;2.70;;;2.30;;
11042;SDS011;5574;48.786;10.120;2024-01-15T14:16:07;3.27;;;2.47;;
11042;SDS011;5574;48.786;10.120;2024-01-15T14:18:34;3.17;;;2.83;;
11042;SDS011;5574;48.786;10.120;2024-01-15T14:21:02;2.57;;;2.20;;
11042;SDS011;5574;48.786;10.120;2024-01-15T14:23:29;2.97;;;2.50;;
11042;SDS011;5574;48.786;10.120;2024-01-15T14:25:56;2.83;;;2.53;;
11042;SDS011;5574;48.786;10.120;2024-01-15T14:28:23;2.47;;;2.27;;
11042;SDS011;5574;48.786;10.120;2024-01-15T14:30:50;2.50;;;2.30;;
11042;SDS011;5574;48.786;10.120;2024-01-15T14:33:17;3.53;;;2.83;;
11042;SDS011;5574;48.786;10.120;2024-01-15T14:35:45;3.03;;;2.53;;
11042;SDS011;5574;48.786;10.120;2024-01-15T14:38:13;2.50;;;2.30;;
11042;SDS011;5574;48.786;10.120;2024-01-15T14:40:40;2.80;;;2.60;;
11042;SDS011;5574;48.786;10.120;2024-01-15T14:43:07;2.63;;;2.30;;
11042;SDS011;5574;48.786;10.120;2024-01-15T14:45:34;2.57;;;2.20;;
11042;SDS011;5574;48.786;10.120;2024-01-15T14:48:00;2.83;;;2.60;;
11042;SDS011;5574;48.786;10.120;2024-01-15T14:50:27;2.60;;;2.40;;
11042;SDS011;5574;48.786;10.120;2024-01-15T14:52:54;3.17;;;2.53;;
11042;SDS011;5574;48.786;10.120;2024-01-15T14:55:22;3.03;;;2.73;;
11042;SDS011;5574;48.786;10.120;2024-01-15T14:57:49;2.90;;;2.70;;